Time;durP1;ratioP1;P1;durP2;ratioP2;P2;SDS_P1;SDS_P2;PMS_P1;PMS_P2;Temp;Humidity;BMP_temperature;BMP_pressure;BME280_temperature;BME280_humidity;BME280_pressure;Samples;Min_cycle;Max_cycle;Signal;HPM_P1;HPM_P2
2022/05/23 00:01:21;;;;;;;11.07;5.47;;;;;;;18.32;56.24;100524.63;4962136;28;20359;-85
2022/05/23 00:03:48;;;;;;;13.40;6.20;;;;;;;18.34;56.97;100533.44;4994701;28;20433;-85
2022/05/23 00:06:19;;;;;;;11.65;5.57;;;;;;;18.31;56.75;100544.97;4976757;28;20117;-85
2022/05/23 00:08:52;;;;;;;13.90;6.00;;;;;;;18.22;56.61;100531.78;4977228;28;20084;-85
2022/05/23 00:11:19;;;;;;;13.77;5.63;;;;;;;18.17;57.35;100530.97;4976925;28;20042;-85
2022/05/23 00:13:48;;;;;;;15.40;5.33;;;;;;;18.18;57.10;100535.34;4976848;28;20431;-85
2022/05/23 00:16:22;;;;;;;10.02;4.90;;;;;;;18.16;56.47;100532.88;4994503;28;20026;-85
2022/05/23 00:18:53;;;;;;;12.75;5.35;;;;;;;18.22;56.84;100536.47;4977383;28;20041;-85
2022/05/23 00:21:21;;;;;;;12.80;5.80;;;;;;;18.20;57.02;100535.91;4960291;28;20042;-85
2022/05/23 00:23:46;;;;;;;12.10;5.32;;;;;;;18.14;57.66;100523.28;4976886;28;20038;-85
2022/05/23 00:26:17;;;;;;;12.17;6.23;;;;;;;18.06;57.49;100511.72;4994236;28;20447;-85
2022/05/23 00:28:42;;;;;;;12.52;6.07;;;;;;;17.99;58.29;100499.38;4976777;28;20034;-85
2022/05/23 00:31:10;;;;;;;12.90;5.20;;;;;;;17.95;57.69;100501.88;4976650;28;20555;-85
2022/05/23 00:36:34;;;;;;;11.13;5.72;;;;;;;17.95;57.10;100512.00;4994735;28;20481;-84
2022/05/23 00:39:08;;;;;;;10.25;5.28;;;;;;;17.99;57.57;100519.41;4960972;28;20051;-85
2022/05/23 00:44:31;;;;;;;9.05;5.30;;;;;;;17.95;57.76;100501.88;4994225;28;20555;-85
2022/05/23 00:47:19;;;;;;;11.27;5.60;;;;;;;17.98;57.99;100509.56;4976806;28;20027;-85
2022/05/23 00:49:45;;;;;;;11.85;5.57;;;;;;;17.98;58.08;100504.06;4976805;28;20058;-85
2022/05/23 00:52:22;;;;;;;13.40;6.00;;;;;;;17.94;58.60;100488.38;4979361;28;20410;-85
2022/05/23 00:54:50;;;;;;;9.50;5.83;;;;;;;17.85;58.72;100480.69;4980244;28;20026;-85
2022/05/23 00:57:36;;;;;;;9.15;5.82;;;;;;;17.84;57.77;100475.47;4979859;28;20490;-85
2022/05/23 01:00:10;;;;;;;13.57;6.10;;;;;;;17.83;59.15;100473.81;4997746;28;20486;-85
2022/05/23 01:02:39;;;;;;;11.07;6.05;;;;;;;17.75;58.79;100472.44;4998118;28;20068;-85
2022/05/23 01:05:09;;;;;;;10.25;6.43;;;;;;;17.84;59.47;100490.00;4980030;28;20053;-85
2022/05/23 01:07:42;;;;;;;17.33;6.30;;;;;;;17.81;59.10;100493.28;4997810;28;20037;-84
2022/05/23 01:10:09;;;;;;;9.25;5.97;;;;;;;17.70;59.57;100484.25;4979808;28;20057;-85
2022/05/23 01:12:38;;;;;;;12.98;6.47;;;;;;;17.73;59.78;100499.34;4979691;28;20037;-85
2022/05/23 01:15:18;;;;;;;12.68;6.18;;;;;;;17.69;60.12;100503.72;4963840;28;20544;-85
2022/05/23 01:17:43;;;;;;;13.38;6.60;;;;;;;17.63;59.54;100497.38;4980176;28;20462;-85
2022/05/23 01:20:09;;;;;;;15.33;6.60;;;;;;;17.62;59.68;100494.91;4979748;28;20037;-85
2022/05/23 01:23:28;;;;;;;13.65;6.40;;;;;;;17.63;58.70;100485.59;4979519;28;20035;-85
2022/05/23 01:25:54;;;;;;;13.50;6.55;;;;;;;17.49;60.44;100479.78;4979184;28;20045;-85
2022/05/23 01:28:22;;;;;;;11.70;6.33;;;;;;;17.43;61.04;100470.72;4997177;28;20390;-86
2022/05/23 01:30:56;;;;;;;9.88;6.80;;;;;;;17.35;61.69;100476.75;4996848;28;20038;-85
2022/05/23 01:33:28;;;;;;;11.48;6.32;;;;;;;17.30;61.42;100476.72;4979318;28;20387;-85
2022/05/23 01:36:13;;;;;;;11.40;6.40;;;;;;;17.23;60.40;100473.41;4979723;28;20034;-85
2022/05/23 01:38:39;;;;;;;8.07;5.83;;;;;;;17.18;61.77;100464.09;5009421;28;20046;-85
2022/05/23 01:41:07;;;;;;;12.75;6.65;;;;;;;17.20;62.31;100472.06;5031654;28;20037;-85
2022/05/23 01:43:38;;;;;;;11.23;6.53;;;;;;;17.12;61.54;100462.41;4999091;28;20037;-86
2022/05/23 01:46:06;;;;;;;11.98;6.65;;;;;;;17.09;62.04;100473.91;4998702;28;20084;-85
2022/05/23 01:48:33;;;;;;;13.43;6.65;;;;;;;17.18;62.00;100482.44;5016000;28;20033;-85
2022/05/23 01:51:02;;;;;;;10.90;6.53;;;;;;;17.10;62.63;100469.28;4999038;28;20085;-85
2022/05/23 01:53:27;;;;;;;15.40;6.88;;;;;;;17.14;62.31;100475.84;4998609;28;20088;-85
2022/05/23 01:56:02;;;;;;;12.93;6.43;;;;;;;17.07;62.66;100467.88;4998289;28;20034;-85
2022/05/23 02:01:29;;;;;;;13.23;7.13;;;;;;;17.00;61.91;100457.16;5001667;28;20092;-85
2022/05/23 02:03:57;;;;;;;14.73;6.65;;;;;;;17.08;62.08;100453.09;4998802;28;20045;-85
2022/05/23 02:06:25;;;;;;;12.60;6.22;;;;;;;17.07;62.32;100450.63;4998843;28;20117;-85
2022/05/23 02:08:55;;;;;;;13.90;7.03;;;;;;;17.03;63.19;100446.75;5016180;28;20053;-85
2022/05/23 02:11:23;;;;;;;12.35;6.40;;;;;;;17.05;62.92;100447.31;4998258;28;20025;-85
2022/05/23 02:13:49;;;;;;;14.23;6.95;;;;;;;17.01;62.34;100447.03;5015593;28;20077;-85
2022/05/23 02:16:23;;;;;;;14.40;7.20;;;;;;;16.92;62.62;100448.63;4998161;28;20030;-85
2022/05/23 02:19:03;;;;;;;11.73;6.90;;;;;;;16.91;62.91;100455.22;5016128;28;20026;-85
2022/05/23 02:21:31;;;;;;;13.00;6.53;;;;;;;16.87;63.16;100449.44;5015343;28;20581;-85
2022/05/23 02:23:57;;;;;;;10.30;6.50;;;;;;;16.96;62.81;100460.69;4981611;28;20038;-85
2022/05/23 02:26:32;;;;;;;11.83;6.97;;;;;;;16.88;64.04;100442.88;4981247;28;20103;-85
2022/05/23 02:29:18;;;;;;;;;;;;;;;;;;;;;
2022/05/23 02:31:48;;;;;;;14.35;6.82;;;;;;;16.90;63.79;100443.41;5016484;28;20112;-85
2022/05/23 02:34:20;;;;;;;13.73;6.95;;;;;;;16.90;63.42;100437.94;4997868;28;20462;-85
2022/05/23 02:36:58;;;;;;;12.97;7.00;;;;;;;16.91;63.43;100436.03;4998134;28;20025;-85
2022/05/23 02:39:26;;;;;;;12.60;6.68;;;;;;;16.93;63.54;100433.84;4998129;28;20093;-85
2022/05/23 02:41:52;;;;;;;15.85;7.07;;;;;;;16.87;63.29;100423.91;4997803;28;20045;-85
2022/05/23 02:44:17;;;;;;;11.20;6.63;;;;;;;16.85;63.70;100421.44;4997755;28;20045;-85
2022/05/23 02:46:53;;;;;;;12.45;7.00;;;;;;;16.83;64.40;100410.75;4997048;28;20060;-85
2022/05/23 02:49:24;;;;;;;13.20;7.25;;;;;;;16.79;64.65;100406.09;4982419;28;20040;-85
2022/05/23 02:51:52;;;;;;;8.90;6.47;;;;;;;16.80;64.20;100396.75;4998429;28;20056;-85
2022/05/23 02:54:23;;;;;;;14.50;6.97;;;;;;;16.77;63.76;100405.50;5015352;28;20105;-85
2022/05/23 02:56:48;;;;;;;12.10;6.90;;;;;;;16.72;64.99;100381.66;5015367;28;20524;-85
2022/05/23 02:59:19;;;;;;;12.90;7.30;;;;;;;16.71;64.30;100373.72;4997826;28;20030;-85
2022/05/23 03:04:38;;;;;;;11.77;7.00;;;;;;;16.63;64.37;100362.19;5014988;28;20402;-85
2022/05/23 03:07:28;;;;;;;13.82;7.65;;;;;;;16.65;63.80;100351.81;4998048;28;20084;-85
2022/05/23 03:09:57;;;;;;;12.23;7.55;;;;;;;16.63;65.93;100344.94;4997705;28;20113;-85
2022/05/23 03:12:25;;;;;;;12.83;6.80;;;;;;;16.57;65.28;100327.66;4997820;28;20038;-85
2022/05/23 03:15:03;;;;;;;14.00;7.38;;;;;;;16.54;65.24;100333.69;4996470;28;20057;-85
2022/05/23 03:17:43;;;;;;;12.20;7.47;;;;;;;16.51;65.33;100322.44;4997997;28;20030;-85
2022/05/23 03:20:23;;;;;;;14.05;7.85;;;;;;;16.54;65.92;100330.94;4982214;28;20041;-85
2022/05/23 03:28:27;;;;;;;10.82;7.38;;;;;;;16.44;66.74;100309.00;5015106;28;20040;-85
2022/05/23 03:30:58;;;;;;;13.85;7.32;;;;;;;16.42;66.72;100305.72;4996582;28;20029;-85
2022/05/23 03:33:34;;;;;;;10.00;7.13;;;;;;;16.43;66.54;100310.06;4996491;28;20120;-85
2022/05/23 03:36:10;;;;;;;;;;;;;;;;;;;;;
2022/05/23 03:38:46;;;;;;;13.40;7.70;;;;;;;16.37;66.71;100297.47;5012733;28;20042;-85
2022/05/23 03:41:39;;;;;;;12.23;7.07;;;;;;;16.31;65.75;100294.72;5014085;28;20371;-85
2022/05/23 03:44:08;;;;;;;13.57;7.68;;;;;;;16.23;67.58;100276.06;4996352;28;20038;-85
2022/05/23 03:46:36;;;;;;;14.82;7.88;;;;;;;16.21;67.55;100288.34;4980625;28;20038;-86
2022/05/23 03:49:15;;;;;;;17.48;7.80;;;;;;;16.20;67.57;100284.81;4996541;28;20371;-85
2022/05/23 03:51:48;;;;;;;14.00;7.40;;;;;;;16.20;68.09;100273.03;4996825;28;20045;-85
2022/05/23 03:54:21;;;;;;;14.68;7.75;;;;;;;16.19;67.82;100268.66;4980186;28;20050;-85
2022/05/23 03:56:49;;;;;;;13.27;7.63;;;;;;;16.16;68.42;100269.19;4996710;28;20036;-85
2022/05/23 03:59:17;;;;;;;11.95;7.78;;;;;;;16.14;68.49;100266.72;5013761;28;20049;-85
2022/05/23 04:01:45;;;;;;;13.40;7.50;;;;;;;16.15;68.62;100260.16;4996669;28;20117;-85
2022/05/23 04:04:10;;;;;;;12.73;7.53;;;;;;;16.12;68.99;100261.50;4980340;28;20042;-85
2022/05/23 04:06:38;;;;;;;14.20;7.88;;;;;;;16.16;69.02;100266.44;4995959;28;20026;-85
2022/05/23 04:09:06;;;;;;;14.18;7.82;;;;;;;16.17;69.38;100266.19;5029396;28;20030;-85
2022/05/23 04:11:44;;;;;;;12.67;7.73;;;;;;;16.10;68.86;100255.47;4996027;28;20030;-85
2022/05/23 04:14:20;;;;;;;16.02;8.27;;;;;;;16.17;69.17;100249.75;4981125;28;20041;-85
2022/05/23 04:16:47;;;;;;;14.48;7.18;;;;;;;16.17;69.40;100238.81;4981945;28;20033;-85
2022/05/23 04:19:20;;;;;;;15.73;8.38;;;;;;;16.26;68.93;100250.88;4996518;28;20103;-85
2022/05/23 04:22:00;;;;;;;13.55;7.75;;;;;;;16.24;68.17;100239.38;5014626;28;20462;-85
2022/05/23 04:24:34;;;;;;;14.00;7.67;;;;;;;16.26;68.79;100239.13;4996578;28;20124;-85
2022/05/23 04:27:07;;;;;;;13.93;7.63;;;;;;;16.37;69.13;100251.75;4984896;28;20100;-85
2022/05/23 04:29:33;;;;;;;13.20;7.95;;;;;;;16.36;68.87;100236.41;4985516;28;20136;-85
2022/05/23 04:35:12;;;;;;;11.27;7.67;;;;;;;16.53;68.14;100246.31;4999992;28;20123;-85
2022/05/23 04:37:50;;;;;;;13.15;7.38;;;;;;;16.56;68.31;100226.59;5017965;28;20125;-85
2022/05/23 04:40:44;;;;;;;13.02;6.93;;;;;;;16.69;67.53;100245.25;4999648;28;20393;-85
2022/05/23 04:43:13;;;;;;;13.38;7.68;;;;;;;16.74;67.64;100237.06;4995644;28;20548;-85
2022/05/23 04:45:40;;;;;;;10.83;8.20;;;;;;;16.73;67.99;100229.13;4999438;28;20026;-85
2022/05/23 04:51:00;;;;;;;16.60;8.07;;;;;;;16.84;67.63;100230.75;5017932;28;20422;-85
2022/05/23 04:53:34;;;;;;;13.27;7.30;;;;;;;16.87;68.12;100222.00;5017075;28;20478;-85
2022/05/23 04:56:03;;;;;;;11.18;7.05;;;;;;;16.93;67.37;100222.84;4983486;28;20037;-85
2022/05/23 04:58:52;;;;;;;10.03;7.17;;;;;;;16.99;66.70;100219.00;5000124;28;20029;-85
2022/05/23 05:01:21;;;;;;;11.18;7.18;;;;;;;16.95;67.36;100212.47;4968615;28;20046;-85
2022/05/23 05:04:04;;;;;;;12.82;6.68;;;;;;;17.07;66.68;100223.16;5016726;28;20033;-85
2022/05/23 05:06:33;;;;;;;11.52;6.90;;;;;;;17.17;67.11;100220.41;4999519;28;20125;-85
2022/05/23 05:09:03;;;;;;;11.02;6.85;;;;;;;17.26;67.25;100204.19;4999079;28;20436;-85
2022/05/23 05:11:29;;;;;;;11.37;6.50;;;;;;;17.40;66.82;100208.03;4984658;28;20438;-85
2022/05/23 05:14:09;;;;;;;;;;;;;;;;;;;;;
2022/05/23 05:16:39;;;;;;;15.73;6.93;;;;;;;17.56;66.04;100194.31;5017686;28;20048;-85
2022/05/23 05:19:05;;;;;;;10.80;6.77;;;;;;;17.64;65.30;100175.34;5016601;28;20112;-85
2022/05/23 05:21:41;;;;;;;10.75;6.25;;;;;;;17.68;65.16;100162.69;4999117;28;20434;-85
2022/05/23 05:24:12;;;;;;;12.13;6.43;;;;;;;17.76;64.95;100168.72;4984209;28;20068;-85
2022/05/23 05:26:52;;;;;;;;;;;;;;;;;;;;;
2022/05/23 05:29:29;;;;;;;8.63;6.07;;;;;;;17.92;64.25;100159.34;5001584;28;20355;-85
2022/05/23 05:32:12;;;;;;;9.93;6.37;;;;;;;18.04;63.96;100161.75;4999363;28;20121;-86
2022/05/23 05:35:20;;;;;;;11.63;6.68;;;;;;;18.18;63.03;100164.72;4998540;28;20026;-87
2022/05/23 05:38:13;;;;;;;10.60;6.38;;;;;;;18.19;63.28;100149.91;4988362;28;20054;-86
2022/05/23 05:40:44;;;;;;;8.25;6.38;;;;;;;18.32;62.90;100137.44;4998952;28;20034;-87
2022/05/23 05:43:20;;;;;;;11.93;6.22;;;;;;;18.47;62.11;100144.75;5016655;28;20241;-84
2022/05/23 05:45:58;;;;;;;11.63;6.40;;;;;;;18.59;62.01;100135.06;4998694;28;20025;-95
2022/05/23 05:48:45;;;;;;;;;;;;;;;;;;;;;
2022/05/23 05:51:44;;;;;;;;;;;;;;;;;;;;;
2022/05/23 05:54:21;;;;;;;10.57;6.60;;;;;;;18.82;61.15;100137.34;5016151;28;20021;-86
2022/05/23 05:56:55;;;;;;;12.93;7.32;;;;;;;18.82;60.85;100115.38;4998174;28;20397;-87
2022/05/23 06:02:39;;;;;;;13.73;6.78;;;;;;;18.96;59.97;100119.13;5016083;28;20069;-90
2022/05/23 06:05:10;;;;;;;13.50;6.63;;;;;;;19.03;59.57;100118.75;4967566;28;20042;-88
2022/05/23 06:13:26;;;;;;;14.23;7.50;;;;;;;19.42;59.16;100118.63;5003469;28;20072;-87
2022/05/23 06:15:52;;;;;;;11.80;7.50;;;;;;;19.49;58.46;100118.28;4999058;28;20026;-85
2022/05/23 06:18:19;;;;;;;11.50;7.45;;;;;;;19.60;58.35;100121.72;4998481;28;20033;-85
2022/05/23 06:20:50;;;;;;;12.10;7.17;;;;;;;19.65;57.95;100107.94;5015978;28;20041;-85
2022/05/23 06:23:15;;;;;;;11.18;7.18;;;;;;;19.69;57.72;100099.91;4998448;28;20030;-85
2022/05/23 06:25:51;;;;;;;10.27;6.55;;;;;;;19.78;57.30;100095.38;4996833;28;20148;-85
2022/05/23 06:28:22;;;;;;;11.73;6.63;;;;;;;19.85;57.16;100086.78;4997682;28;20036;-85
2022/05/23 06:30:51;;;;;;;11.63;6.78;;;;;;;19.93;57.09;100086.09;4981891;28;20120;-85
2022/05/23 06:33:19;;;;;;;12.23;7.40;;;;;;;20.07;56.78;100091.72;5014853;28;20077;-85
2022/05/23 06:35:50;;;;;;;11.73;7.28;;;;;;;20.06;56.85;100087.31;4981217;28;20048;-85
2022/05/23 06:38:16;;;;;;;18.55;7.30;;;;;;;20.07;56.52;100091.72;5014882;28;20049;-86
2022/05/23 06:40:50;;;;;;;11.07;7.10;;;;;;;20.11;56.39;100101.03;5014973;28;20032;-85
2022/05/23 06:43:16;;;;;;;9.15;6.80;;;;;;;20.17;56.48;100097.06;4966963;28;20033;-85
2022/05/23 06:45:42;;;;;;;10.20;6.90;;;;;;;20.18;56.33;100082.16;4996891;28;20032;-85
2022/05/23 06:48:14;;;;;;;12.25;7.00;;;;;;;20.30;55.93;100099.06;4996637;28;20413;-85
2022/05/23 06:50:44;;;;;;;9.67;5.77;;;;;;;20.36;55.25;100088.78;5014886;28;20029;-85
2022/05/23 06:53:13;;;;;;;9.90;5.75;;;;;;;20.62;54.79;100088.38;4998048;28;20025;-85
2022/05/23 06:55:50;;;;;;;7.68;5.60;;;;;;;20.85;54.42;100086.63;5014392;28;20037;-85
2022/05/23 06:58:21;;;;;;;10.82;5.88;;;;;;;21.02;53.82;100092.38;4997709;28;20026;-85
2022/05/23 07:00:53;;;;;;;6.93;5.10;;;;;;;21.19;52.77;100090.97;5015535;28;20033;-85
2022/05/23 07:03:43;;;;;;;8.40;5.20;;;;;;;21.24;52.43;100090.06;4997244;28;20588;-85
2022/05/23 07:14:47;;;;;;;9.90;5.13;;;;;;;21.46;52.04;100090.16;5015195;28;20464;-85
2022/05/23 07:17:22;;;;;;;8.37;4.77;;;;;;;21.57;52.02;100084.44;4996646;28;20034;-86
2022/05/23 07:20:03;;;;;;;;;;;;;;;;;;;;;
2022/05/23 07:22:38;;;;;;;18.02;5.75;;;;;;;21.69;51.65;100077.28;5015144;28;20036;-85
2022/05/23 07:25:09;;;;;;;8.75;5.18;;;;;;;21.84;51.27;100089.94;4996911;28;20038;-85
2022/05/23 07:27:42;;;;;;;9.75;4.90;;;;;;;21.89;51.31;100077.97;4997177;28;20437;-85
2022/05/23 07:30:21;;;;;;;9.53;5.40;;;;;;;22.10;50.53;100088.53;4996841;28;20124;-85
2022/05/23 07:32:54;;;;;;;6.18;4.95;;;;;;;22.16;49.84;100084.53;4980818;28;20061;-85
2022/05/23 07:35:25;;;;;;;9.88;5.03;;;;;;;22.39;49.27;100080.69;5014022;28;20540;-85
2022/05/23 07:37:58;;;;;;;8.25;5.07;;;;;;;22.68;48.90;100090.50;4992725;28;20085;-85
2022/05/23 07:40:29;;;;;;;9.60;4.93;;;;;;;22.84;48.24;100077.09;4960686;28;20093;-85
2022/05/23 07:43:04;;;;;;;9.17;5.23;;;;;;;23.03;47.93;100082.41;4977452;28;20489;-85
2022/05/23 07:45:30;;;;;;;10.80;4.97;;;;;;;23.25;47.04;100067.72;4962192;28;20054;-85
2022/05/23 07:48:01;;;;;;;10.27;5.20;;;;;;;23.43;47.20;100063.06;4994180;28;20069;-85
2022/05/23 07:50:35;;;;;;;11.17;5.13;;;;;;;23.48;46.90;100064.84;4962121;28;20038;-85
2022/05/23 08:01:21;;;;;;;12.43;4.85;;;;;;;24.14;45.73;100069.53;4980186;28;20046;-85
2022/05/23 08:04:03;;;;;;;11.17;5.30;;;;;;;24.12;45.71;100060.72;4961572;28;20038;-90
2022/05/23 08:06:41;;;;;;;9.05;4.63;;;;;;;24.18;45.28;100056.66;4977062;28;20034;-89
2022/05/23 08:09:09;;;;;;;12.05;4.60;;;;;;;24.07;44.94;100045.09;4946398;28;20072;-87
2022/05/23 08:11:46;;;;;;;12.30;4.78;;;;;;;23.91;44.78;100041.16;4994094;28;20045;-87
2022/05/23 08:14:27;;;;;;;;;;;;;;;;;;;;;
2022/05/23 08:17:16;;;;;;;10.70;4.40;;;;;;;23.79;45.47;100033.47;4978982;28;20043;-90
2022/05/23 08:20:05;;;;;;;;;;;;;;;;;;;;;
2022/05/23 08:22:56;;;;;;;11.60;4.20;;;;;;;23.72;45.70;100022.88;4994814;28;20038;-90
2022/05/23 08:25:36;;;;;;;;;;;;;;;;;;;;;
2022/05/23 08:30:55;;;;;;;20.50;4.70;;;;;;;23.72;46.01;100020.09;4979524;28;20049;-89
2022/05/23 08:33:36;;;;;;;8.52;4.35;;;;;;;23.81;46.14;100026.47;4976467;28;20030;-89
2022/05/23 08:36:04;;;;;;;19.27;4.10;;;;;;;23.96;45.43;100014.13;4977599;28;20378;-89
2022/05/23 08:38:43;;;;;;;9.10;4.70;;;;;;;24.22;45.08;99998.63;4976084;28;20153;-90
2022/05/23 08:42:13;;;;;;;;;;;;;;;;;;;;;
2022/05/23 08:45:00;;;;;;;15.07;5.00;;;;;;;24.89;43.97;99994.38;4987193;28;20048;-91
2022/05/23 08:47:43;;;;;;;17.30;4.68;;;;;;;24.94;43.21;99973.97;4976670;28;20030;-89
2022/05/23 08:51:01;;;;;;;8.00;4.53;;;;;;;25.10;43.08;99976.97;4976419;28;20038;-90
2022/05/23 08:53:34;;;;;;;8.93;4.53;;;;;;;25.26;41.78;99993.88;4916974;28;20042;-90
2022/05/23 08:56:10;;;;;;;11.02;5.00;;;;;;;25.35;41.64;99967.72;4976680;28;20399;-90
2022/05/23 08:58:52;;;;;;;12.20;4.70;;;;;;;25.42;41.38;99969.94;4995834;28;20475;-89
2022/05/23 09:01:54;;;;;;;;;;;;;;;;;;;;;
2022/05/23 09:08:23;;;;;;;10.38;5.05;;;;;;;25.13;41.89;99954.94;4933722;29;20540;-91
2022/05/23 09:10:54;;;;;;;22.90;5.00;;;;;;;25.06;41.71;99949.09;4916177;29;20130;-92
2022/05/23 09:14:04;;;;;;;11.50;4.33;;;;;;;25.11;41.75;99937.78;4974931;28;20088;-88
2022/05/23 09:17:05;;;;;;;;;;;;;;;;;;;;;
2022/05/23 09:24:08;;;;;;;;;;;;;;;;;;;;;
2022/05/23 09:27:08;;;;;;;9.95;4.10;;;;;;;24.92;43.37;99940.19;4996667;28;20044;-89
2022/05/23 09:30:04;;;;;;;7.53;4.33;;;;;;;24.87;43.91;99933.69;4982102;28;20053;-89
2022/05/23 09:32:56;;;;;;;10.23;4.32;;;;;;;25.05;43.39;99916.94;4965866;28;20070;-89
2022/05/23 09:35:46;;;;;;;;;;;;;;;;;;;;;
2022/05/23 09:38:23;;;;;;;5.88;4.40;;;;;;;26.05;41.58;99924.69;5003787;28;20064;-89
2022/05/23 09:40:59;;;;;;;11.10;4.85;;;;;;;26.46;40.08;99889.56;4998731;28;20025;-89
2022/05/23 09:49:26;;;;;;;11.60;4.50;;;;;;;26.94;39.56;99890.75;5016174;28;20072;-89
2022/05/23 09:51:57;;;;;;;6.88;4.05;;;;;;;27.00;39.14;99891.31;4983260;28;20546;-89
2022/05/23 09:55:06;;;;;;;13.50;4.60;;;;;;;27.03;39.82;99885.06;5015998;28;20032;-90
2022/05/23 10:01:50;;;;;;;13.90;4.80;;;;;;;26.94;39.56;99857.38;5000088;28;20030;-89
2022/05/23 10:04:19;;;;;;;9.60;4.53;;;;;;;26.84;39.42;99845.88;5003924;28;20179;-89
2022/05/23 10:09:56;;;;;;;8.73;5.20;;;;;;;26.98;39.42;99842.75;4988700;28;20052;-91
2022/05/23 10:12:29;;;;;;;13.87;4.93;;;;;;;26.92;39.23;99842.16;4998638;28;20042;-90
2022/05/23 10:15:36;;;;;;;11.07;5.13;;;;;;;26.91;39.82;99846.94;5015342;28;20112;-89
2022/05/23 10:21:31;;;;;;;8.13;4.72;;;;;;;26.54;39.45;99849.69;4966413;28;20458;-88
2022/05/23 10:24:25;;;;;;;9.07;4.30;;;;;;;26.75;39.75;99869.09;4996071;28;20065;-88
2022/05/23 10:27:42;;;;;;;;;;;;;;;;;;;;;
2022/05/23 10:30:54;;;;;;;;;;;;;;;;;;;;;
2022/05/23 10:33:47;;;;;;;8.48;4.05;;;;;;;27.45;38.22;99839.38;5012289;28;20378;-88
2022/05/23 10:36:53;;;;;;;13.40;4.60;;;;;;;27.74;38.23;99841.00;5014987;28;20041;-87
2022/05/23 10:42:37;;;;;;;7.97;4.43;;;;;;;28.27;35.71;99823.25;4996349;28;20395;-87
2022/05/23 10:52:16;;;;;;;9.15;3.85;;;;;;;29.09;35.05;99792.88;4995522;28;20425;-89
2022/05/23 10:55:12;;;;;;;6.68;3.70;;;;;;;29.31;34.02;99797.75;4954684;28;20035;-88
2022/05/23 10:57:52;;;;;;;7.53;4.30;;;;;;;29.53;33.54;99785.00;4978115;28;20041;-89
2022/05/23 11:00:29;;;;;;;6.35;3.40;;;;;;;29.86;31.20;99772.44;4977998;28;20435;-90
2022/05/23 11:03:19;;;;;;;7.80;4.10;;;;;;;30.57;32.29;99785.19;4977018;28;20064;-90
2022/05/23 11:06:06;;;;;;;6.22;4.20;;;;;;;30.72;31.88;99770.19;4978631;28;20035;-88
2022/05/23 11:09:17;;;;;;;7.20;5.47;;;;;;;31.28;31.63;99764.94;4978376;28;20125;-91
2022/05/23 11:12:07;;;;;;;8.23;5.00;;;;;;;31.79;30.53;99747.47;4978069;28;20037;-84
2022/05/23 11:14:32;;;;;;;7.15;4.68;;;;;;;32.51;28.13;99728.38;4977394;28;20137;-85
2022/05/23 11:17:11;;;;;;;5.73;3.50;;;;;;;33.47;28.16;99725.56;4977769;28;20050;-84
2022/05/23 11:19:54;;;;;;;9.15;3.58;;;;;;;33.73;26.11;99713.97;4978327;28;20022;-84
2022/05/23 11:22:35;;;;;;;7.40;3.40;;;;;;;33.15;26.35;99698.19;4977816;28;20044;-84
2022/05/23 11:25:26;;;;;;;4.55;3.20;;;;;;;32.39;27.05;99697.03;4977675;28;20037;-84
2022/05/23 11:34:03;;;;;;;5.45;2.60;;;;;;;31.23;27.56;99682.03;4994511;28;20077;-85
2022/05/23 11:39:57;;;;;;;5.68;3.00;;;;;;;33.18;26.43;99680.53;4973352;28;20050;-85
2022/05/23 11:42:42;;;;;;;5.85;2.65;;;;;;;33.51;25.57;99690.63;4997167;28;20037;-85
2022/05/23 11:48:01;;;;;;;7.03;3.13;;;;;;;32.25;26.05;99666.91;5014453;28;20041;-84
2022/05/23 11:50:47;;;;;;;6.00;3.15;;;;;;;31.93;26.36;99657.03;5013599;28;20033;-85
2022/05/23 11:53:34;;;;;;;4.63;2.97;;;;;;;32.26;26.04;99662.88;4996282;28;20052;-84
2022/05/23 11:56:03;;;;;;;6.18;2.83;;;;;;;31.88;26.89;99645.41;5013759;28;20121;-84
2022/05/23 11:58:40;;;;;;;7.50;3.00;;;;;;;31.54;27.68;99660.31;4996036;28;20436;-84
2022/05/23 12:01:12;;;;;;;6.55;2.92;;;;;;;31.23;28.02;99651.22;4995955;28;20068;-85
2022/05/23 12:03:49;;;;;;;5.78;3.40;;;;;;;30.94;28.09;99655.69;4996224;28;20068;-85
2022/05/23 12:06:19;;;;;;;4.28;2.85;;;;;;;30.35;28.48;99644.13;5013519;28;20105;-84
2022/05/23 12:09:11;;;;;;;5.28;3.10;;;;;;;30.08;29.18;99636.56;4996068;28;20088;-84
2022/05/23 12:11:38;;;;;;;8.53;3.03;;;;;;;29.50;29.72;99636.84;4996103;28;20034;-84
2022/05/23 12:14:19;;;;;;;5.45;2.90;;;;;;;29.28;30.16;99638.47;5013698;28;20049;-85
2022/05/23 12:17:12;;;;;;;4.97;2.47;;;;;;;29.14;31.35;99636.19;4996502;28;20079;-84
2022/05/23 12:19:41;;;;;;;5.95;2.85;;;;;;;28.89;31.47;99639.31;5003998;28;20065;-85
2022/05/23 12:22:24;;;;;;;4.60;2.90;;;;;;;28.84;32.37;99620.88;4996560;28;20065;-85
2022/05/23 12:25:16;;;;;;;7.07;2.90;;;;;;;28.76;31.43;99627.50;5013728;28;20037;-85
2022/05/23 12:27:47;;;;;;;11.20;2.95;;;;;;;28.69;32.18;99635.75;5013553;28;20451;-85
2022/05/23 12:30:27;;;;;;;6.38;2.97;;;;;;;28.58;31.99;99629.88;4995892;28;20118;-85
2022/05/23 12:33:08;;;;;;;6.13;3.30;;;;;;;28.43;32.48;99625.19;4985554;28;20053;-85
2022/05/23 12:35:44;;;;;;;4.22;2.88;;;;;;;28.42;32.39;99621.63;5013574;28;20022;-84
2022/05/23 12:38:50;;;;;;;6.50;2.80;;;;;;;28.19;32.97;99610.34;4994061;28;20050;-85
2022/05/23 12:41:40;;;;;;;6.72;2.70;;;;;;;28.14;33.23;99610.63;4995682;28;20042;-85
2022/05/23 12:44:40;;;;;;;7.93;2.78;;;;;;;27.85;33.55;99596.03;4995604;28;20034;-84
2022/05/23 12:47:35;;;;;;;5.97;2.90;;;;;;;27.91;33.21;99594.56;4981527;28;20065;-84
2022/05/23 12:50:40;;;;;;;6.00;3.00;;;;;;;27.89;33.50;99577.41;4983327;28;20072;-84
2022/05/23 12:53:44;;;;;;;6.53;2.93;;;;;;;28.23;33.32;99590.91;4971090;28;20053;-84
2022/05/23 12:56:28;;;;;;;7.18;3.10;;;;;;;28.22;33.40;99578.94;4999685;28;20030;-84
2022/05/23 12:59:06;;;;;;;5.80;2.63;;;;;;;28.05;33.79;99582.97;4999312;28;20041;-85
2022/05/23 13:01:36;;;;;;;4.90;2.90;;;;;;;27.82;34.09;99561.31;4999707;28;20081;-85
2022/05/23 13:04:25;;;;;;;7.13;2.67;;;;;;;27.77;33.82;99556.06;4998982;28;20037;-86
2022/05/23 13:06:50;;;;;;;6.63;2.80;;;;;;;27.66;35.33;99571.72;5016850;28;20041;-87
2022/05/23 13:09:31;;;;;;;5.10;3.10;;;;;;;27.61;35.00;99561.66;4999059;28;20030;-85
2022/05/23 13:12:09;;;;;;;6.40;3.00;;;;;;;27.48;35.52;99554.56;4999375;28;20034;-85
2022/05/23 13:15:17;;;;;;;5.63;2.70;;;;;;;27.46;35.63;99556.91;5016883;28;20084;-85
2022/05/23 13:17:49;;;;;;;8.32;3.00;;;;;;;27.03;35.39;99548.28;4921043;29;20535;-85
2022/05/23 13:23:11;;;;;;;6.87;2.93;;;;;;;26.47;37.73;99563.06;5016716;28;20088;-85
2022/05/23 13:25:37;;;;;;;9.82;2.85;;;;;;;26.17;39.03;99554.22;4998823;28;20038;-85
2022/05/23 13:28:08;;;;;;;5.65;2.92;;;;;;;25.22;44.46;99556.00;5016643;28;20030;-86
2022/05/23 13:30:42;;;;;;;5.78;3.10;;;;;;;24.15;46.23;99556.59;4999268;28;20498;-85
2022/05/23 13:33:26;;;;;;;6.88;2.92;;;;;;;23.29;48.09;99551.22;4999130;28;20048;-85
2022/05/23 13:36:05;;;;;;;6.87;3.10;;;;;;;22.82;49.02;99545.66;4998517;28;20030;-85
2022/05/23 13:38:37;;;;;;;9.13;3.63;;;;;;;22.74;51.78;99544.56;4993366;28;20057;-85
2022/05/23 13:41:05;;;;;;;12.05;4.40;;;;;;;23.02;50.33;99529.53;4996638;28;20378;-85
2022/05/23 13:43:42;;;;;;;8.52;4.50;;;;;;;23.54;49.81;99523.75;4996439;28;20037;-85
2022/05/23 13:46:28;;;;;;;6.18;4.30;;;;;;;24.16;49.15;99526.91;4978874;28;20038;-85
2022/05/23 13:49:02;;;;;;;12.23;4.13;;;;;;;24.44;49.68;99520.81;4979191;28;20100;-85
2022/05/23 13:51:27;;;;;;;9.02;4.50;;;;;;;24.64;49.96;99536.63;4979400;28;20356;-85
2022/05/23 13:54:10;;;;;;;11.00;4.97;;;;;;;24.57;48.66;99524.44;4979021;28;20061;-85
2022/05/23 13:56:42;;;;;;;10.48;4.95;;;;;;;24.22;49.38;99519.22;4978759;28;20027;-85
2022/05/23 13:59:16;;;;;;;8.40;4.43;;;;;;;23.88;51.16;99527.47;4978615;28;20054;-85
2022/05/23 14:01:48;;;;;;;8.50;4.20;;;;;;;23.40;53.27;99524.00;4978987;28;20426;-85
2022/05/23 14:04:18;;;;;;;11.65;3.78;;;;;;;23.32;54.14;99524.03;4996600;28;20030;-85
2022/05/23 14:06:49;;;;;;;7.73;3.87;;;;;;;23.36;53.81;99516.69;4996111;28;20490;-85
2022/05/23 14:09:16;;;;;;;7.78;3.75;;;;;;;23.52;54.57;99509.44;4978777;28;20023;-85
2022/05/23 14:11:53;;;;;;;11.10;3.97;;;;;;;23.65;54.12;99513.91;4996082;28;20538;-85